createdAt,value
2022-12-14T00:02:48.207Z,-5.60
2022-12-14T00:08:51.081Z,-5.60
2022-12-14T00:14:52.701Z,-5.60
2022-12-14T00:20:54.312Z,-5.60
2022-12-14T00:26:55.972Z,-5.70
2022-12-14T00:32:57.571Z,-5.70
2022-12-14T00:38:59.550Z,-5.70
2022-12-14T00:45:02.251Z,-5.80
2022-12-14T00:51:04.156Z,-5.80
2022-12-14T00:57:05.800Z,-5.80
2022-12-14T01:03:07.733Z,-5.90
2022-12-14T01:09:09.488Z,-5.90
2022-12-14T01:15:11.096Z,-6.00
2022-12-14T01:21:16.814Z,-6.00
2022-12-14T01:27:18.481Z,-6.00
2022-12-14T01:33:20.184Z,-6.00
2022-12-14T01:39:21.807Z,-6.10
2022-12-14T01:45:23.624Z,-6.10
2022-12-14T01:51:26.003Z,-6.10
2022-12-14T01:57:30.447Z,-6.20
2022-12-14T02:03:37.207Z,-5.90
2022-12-14T02:09:40.240Z,-5.80
2022-12-14T02:15:42.004Z,-5.90
2022-12-14T02:21:49.738Z,-6.00
2022-12-14T02:28:10.196Z,-6.10
2022-12-14T02:34:31.741Z,-6.10
2022-12-14T02:40:36.274Z,-6.00
2022-12-14T02:46:55.607Z,-6.10
2022-12-14T02:53:01.607Z,-6.10
2022-12-14T02:59:04.320Z,-5.90
2022-12-14T03:05:06.587Z,-5.80
2022-12-14T03:11:10.838Z,-5.70
2022-12-14T03:17:19.687Z,-5.90
2022-12-14T03:23:25.080Z,-6.10
2022-12-14T03:29:28.884Z,-6.10
2022-12-14T03:35:53.933Z,-6.10
2022-12-14T03:42:19.794Z,-6.00
2022-12-14T03:48:28.883Z,-6.10
2022-12-14T03:54:30.505Z,-6.20
2022-12-14T04:00:35.104Z,-6.20
2022-12-14T04:06:43.340Z,-6.20
2022-12-14T04:13:03.528Z,-6.30
2022-12-14T04:19:08.318Z,-6.30
2022-12-14T04:25:31.588Z,-6.20
2022-12-14T04:31:34.530Z,-6.20
2022-12-14T04:37:37.639Z,-6.30
2022-12-14T04:43:40.997Z,-6.30
2022-12-14T04:50:05.918Z,-6.30
2022-12-14T04:56:14.063Z,-6.40
2022-12-14T05:02:38.601Z,-6.50
2022-12-14T05:09:00.096Z,-6.50
2022-12-14T05:15:14.060Z,-6.60
2022-12-14T05:21:34.410Z,-6.60
2022-12-14T05:27:36.137Z,-6.60
2022-12-14T05:33:37.746Z,-6.60
2022-12-14T05:39:39.343Z,-6.70
2022-12-14T05:45:41.066Z,-6.70
2022-12-14T05:51:42.815Z,-6.70
2022-12-14T05:57:44.469Z,-6.60
2022-12-14T06:03:46.131Z,-6.70
2022-12-14T06:09:47.812Z,-6.80
2022-12-14T06:15:49.516Z,-6.80
2022-12-14T06:21:51.457Z,-6.80
2022-12-14T06:27:54.484Z,-6.90
2022-12-14T06:33:58.139Z,-6.90
2022-12-14T06:39:59.807Z,-6.90
2022-12-14T06:46:01.476Z,-6.90
2022-12-14T06:52:03.193Z,-7.00
2022-12-14T06:58:04.928Z,-7.10
2022-12-14T07:04:07.306Z,-7.10
2022-12-14T07:10:09.613Z,-7.10
2022-12-14T07:16:13.959Z,-7.00
2022-12-14T07:22:15.709Z,-6.90
2022-12-14T07:28:17.366Z,-7.00
2022-12-14T07:34:19.033Z,-7.00
2022-12-14T07:40:21.558Z,-6.90
2022-12-14T07:46:24.608Z,-6.70
2022-12-14T07:52:26.395Z,-6.70
2022-12-14T07:58:28.064Z,-6.60
2022-12-14T08:04:29.709Z,-6.50
2022-12-14T08:10:34.425Z,-6.50
2022-12-14T08:16:40.582Z,-6.40
2022-12-14T08:22:42.272Z,-6.30
2022-12-14T08:28:43.922Z,-6.30
2022-12-14T08:34:45.800Z,-6.30
2022-12-14T08:40:47.493Z,-6.20
2022-12-14T08:46:49.157Z,-6.10
2022-12-14T08:52:50.902Z,-6.00
2022-12-14T08:58:52.838Z,-6.00
2022-12-14T09:04:54.773Z,-6.00
2022-12-14T09:10:56.445Z,-5.90
2022-12-14T09:16:58.954Z,-5.90
2022-12-14T09:23:00.575Z,-5.90
2022-12-14T09:29:02.203Z,-5.90
2022-12-14T09:35:03.943Z,-5.90
2022-12-14T09:41:07.650Z,-5.90
2022-12-14T09:47:18.639Z,-5.80
2022-12-14T09:53:21.063Z,-6.00
2022-12-14T09:59:24.234Z,-5.90
2022-12-14T10:05:25.932Z,-5.80
2022-12-14T10:11:44.953Z,-5.60
2022-12-14T10:17:55.760Z,-5.30
2022-12-14T10:24:04.910Z,-4.90
2022-12-14T10:30:08.349Z,-4.30
2022-12-14T10:36:27.907Z,-3.80
2022-12-14T10:42:36.812Z,-3.50
2022-12-14T10:48:49.439Z,-3.30
2022-12-14T10:54:54.014Z,-2.40
2022-12-14T11:00:55.764Z,-1.80
2022-12-14T11:06:59.014Z,-1.60
2022-12-14T11:13:05.775Z,-1.60
2022-12-14T11:19:23.013Z,-1.40
2022-12-14T11:25:27.316Z,-1.20
2022-12-14T11:31:35.788Z,-0.80
2022-12-14T11:37:37.527Z,-0.50
2022-12-14T11:43:39.417Z,-0.50
2022-12-14T11:49:41.026Z,-0.60
2022-12-14T11:55:45.479Z,-0.40
2022-12-14T12:01:47.329Z,-0.20
2022-12-14T12:07:48.978Z,-0.30
2022-12-14T12:13:52.450Z,-0.20
2022-12-14T12:19:55.655Z,-0.40
2022-12-14T12:25:58.986Z,-0.30
2022-12-14T12:32:26.950Z,-0.40
2022-12-14T12:38:50.100Z,-0.60
2022-12-14T12:45:00.632Z,-0.70
2022-12-14T12:51:05.578Z,-0.70
2022-12-14T12:57:08.556Z,-0.80
2022-12-14T13:03:13.905Z,-0.90
2022-12-14T13:09:34.379Z,-0.80
2022-12-14T13:15:39.551Z,-0.70
2022-12-14T13:21:44.438Z,-0.60
2022-12-14T13:28:03.071Z,-0.70
2022-12-14T13:34:10.994Z,-1.00
2022-12-14T13:40:21.449Z,-1.10
2022-12-14T13:46:24.758Z,-1.20
2022-12-14T13:52:31.260Z,-1.30
2022-12-14T13:58:41.025Z,-1.40
2022-12-14T14:04:43.419Z,-1.40
2022-12-14T14:10:45.075Z,-1.50
2022-12-14T14:16:51.631Z,-1.60
2022-12-14T14:23:11.890Z,-1.70
2022-12-14T14:29:13.513Z,-1.80
2022-12-14T14:35:24.944Z,-1.90
2022-12-14T14:41:40.905Z,-2.00
2022-12-14T14:47:42.791Z,-2.00
2022-12-14T14:53:44.580Z,-2.20
2022-12-14T14:59:51.290Z,-2.40
2022-12-14T15:05:53.229Z,-2.60
2022-12-14T15:11:56.944Z,-2.80
2022-12-14T15:18:20.941Z,-3.00
2022-12-14T15:24:22.925Z,-3.00
2022-12-14T15:30:28.165Z,-3.20
2022-12-14T15:36:33.635Z,-3.40
2022-12-14T15:42:44.464Z,-3.70
2022-12-14T15:48:46.104Z,-3.70
2022-12-14T15:54:47.753Z,-3.80
2022-12-14T16:00:51.669Z,-3.90
2022-12-14T16:06:57.205Z,-4.10
2022-12-14T16:13:01.969Z,-4.20
2022-12-14T16:19:25.982Z,-4.20
2022-12-14T16:25:28.864Z,-4.00
2022-12-14T16:31:30.592Z,-4.40
2022-12-14T16:37:33.660Z,-4.50
2022-12-14T16:43:37.684Z,-4.60
2022-12-14T16:49:40.315Z,-4.60
2022-12-14T16:56:00.794Z,-4.60
2022-12-14T17:02:02.873Z,-4.70
2022-12-14T17:08:05.834Z,-4.60
2022-12-14T17:14:07.480Z,-4.60
2022-12-14T17:20:17.410Z,-4.30
2022-12-14T17:26:26.945Z,-4.20
2022-12-14T17:32:30.544Z,-4.10
2022-12-14T17:38:32.688Z,-4.10
2022-12-14T17:44:34.307Z,-4.00
2022-12-14T17:50:36.274Z,-4.00
2022-12-14T17:56:37.917Z,-3.90
2022-12-14T18:02:40.065Z,-3.90
2022-12-14T18:08:41.858Z,-3.90
2022-12-14T18:14:43.460Z,-3.90
2022-12-14T18:20:49.412Z,-3.90
2022-12-14T18:26:51.211Z,-4.00
2022-12-14T18:32:52.861Z,-3.90
2022-12-14T18:38:54.617Z,-3.90
2022-12-14T18:44:56.267Z,-3.90
2022-12-14T18:50:57.975Z,-3.90
2022-12-14T18:56:59.675Z,-3.90
2022-12-14T19:03:02.538Z,-3.90
2022-12-14T19:09:04.654Z,-3.80
2022-12-14T19:15:06.723Z,-3.90
2022-12-14T19:21:08.336Z,-3.90
2022-12-14T19:27:09.994Z,-4.00
2022-12-14T19:33:11.763Z,-4.20
2022-12-14T19:39:13.408Z,-4.30
2022-12-14T19:45:15.378Z,-4.40
2022-12-14T19:51:18.091Z,-4.40
2022-12-14T19:57:19.742Z,-4.50
2022-12-14T20:03:21.604Z,-4.50
2022-12-14T20:09:23.566Z,-4.50
2022-12-14T20:15:25.222Z,-4.50
2022-12-14T20:21:29.351Z,-4.50
2022-12-14T20:27:33.795Z,-4.50
2022-12-14T20:33:39.841Z,-4.40
2022-12-14T20:39:41.786Z,-4.60
2022-12-14T20:45:46.641Z,-4.60
2022-12-14T20:51:48.470Z,-4.60
2022-12-14T20:57:50.122Z,-4.70
2022-12-14T21:03:52.114Z,-4.80
2022-12-14T21:09:53.809Z,-4.90
2022-12-14T21:15:55.432Z,-5.10
2022-12-14T21:21:57.119Z,-5.20
2022-12-14T21:27:58.741Z,-5.20
2022-12-14T21:34:00.542Z,-5.40
2022-12-14T21:40:03.785Z,-5.30
2022-12-14T21:46:05.661Z,-5.00
2022-12-14T21:52:07.943Z,-5.00
2022-12-14T21:58:18.781Z,-5.00
2022-12-14T22:04:20.607Z,-5.00
2022-12-14T22:10:25.207Z,-5.00
2022-12-14T22:16:27.053Z,-5.10
2022-12-14T22:22:28.671Z,-5.10
2022-12-14T22:28:30.265Z,-5.20
2022-12-14T22:34:31.875Z,-5.30
2022-12-14T22:40:33.790Z,-5.30
2022-12-14T22:46:35.519Z,-5.20
2022-12-14T22:52:37.161Z,-5.10
2022-12-14T22:58:41.037Z,-5.20
2022-12-14T23:04:42.694Z,-5.30
2022-12-14T23:11:02.675Z,-5.50
2022-12-14T23:17:23.736Z,-5.30
2022-12-14T23:23:44.134Z,-5.40
2022-12-14T23:30:04.280Z,-5.50
2022-12-14T23:36:24.969Z,-5.50
2022-12-14T23:42:45.499Z,-5.40
2022-12-14T23:49:10.440Z,-5.30
2022-12-14T23:55:34.254Z,-5.20
